sensor_id;sensor_type;location;lat;lon;timestamp;pressure;altitude;pressure_sealevel;temperature;humidity
64908;BME280;51412;52.236;5.188;2022-09-09T00:01:20;100697.25;;;18.55;74.82
64908;BME280;51412;52.236;5.188;2022-09-09T00:03:54;100689.28;;;18.51;75.00
64908;BME280;51412;52.236;5.188;2022-09-09T00:06:27;100686.59;;;18.51;75.29
64908;BME280;51412;52.236;5.188;2022-09-09T00:09:01;100685.75;;;18.54;75.44
64908;BME280;51412;52.236;5.188;2022-09-09T00:11:36;100683.47;;;18.52;75.50
64908;BME280;51412;52.236;5.188;2022-09-09T00:14:13;100686.59;;;18.51;75.24
64908;BME280;51412;52.236;5.188;2022-09-09T00:16:49;100678.16;;;18.49;75.26
64908;BME280;51412;52.236;5.188;2022-09-09T00:19:22;100682.44;;;18.46;75.76
64908;BME280;51412;52.236;5.188;2022-09-09T00:22:00;100684.41;;;18.46;76.06
64908;BME280;51412;52.236;5.188;2022-09-09T00:24:32;100685.22;;;18.43;75.78
64908;BME280;51412;52.236;5.188;2022-09-09T00:27:07;100689.09;;;18.42;76.03
64908;BME280;51412;52.236;5.188;2022-09-09T00:29:40;100683.72;;;18.42;76.10
64908;BME280;51412;52.236;5.188;2022-09-09T00:32:13;100678.34;;;18.42;76.25
64908;BME280;51412;52.236;5.188;2022-09-09T00:34:47;100671.03;;;18.42;76.30
64908;BME280;51412;52.236;5.188;2022-09-09T00:37:14;100676.47;;;18.39;76.32
64908;BME280;51412;52.236;5.188;2022-09-09T00:39:42;100678.41;;;18.38;75.85
64908;BME280;51412;52.236;5.188;2022-09-09T00:42:14;100676.91;;;18.37;75.86
64908;BME280;51412;52.236;5.188;2022-09-09T00:44:52;100677.00;;;18.33;76.19
64908;BME280;51412;52.236;5.188;2022-09-09T00:47:38;100672.44;;;18.30;76.60
64908;BME280;51412;52.236;5.188;2022-09-09T00:50:15;100681.72;;;18.29;76.84
64908;BME280;51412;52.236;5.188;2022-09-09T00:52:46;100690.09;;;18.31;76.48
64908;BME280;51412;52.236;5.188;2022-09-09T00:55:19;100697.06;;;18.29;76.26
64908;BME280;51412;52.236;5.188;2022-09-09T00:57:50;100686.75;;;18.27;76.54
64908;BME280;51412;52.236;5.188;2022-09-09T01:00:22;100688.00;;;18.23;76.28
64908;BME280;51412;52.236;5.188;2022-09-09T01:03:02;100686.47;;;18.22;76.68
64908;BME280;51412;52.236;5.188;2022-09-09T01:05:34;100687.88;;;18.10;77.04
64908;BME280;51412;52.236;5.188;2022-09-09T01:08:09;100680.25;;;18.08;76.41
64908;BME280;51412;52.236;5.188;2022-09-09T01:10:43;100684.88;;;18.08;76.34
64908;BME280;51412;52.236;5.188;2022-09-09T01:13:19;100682.69;;;18.03;76.66
64908;BME280;51412;52.236;5.188;2022-09-09T01:15:48;100681.16;;;18.01;76.75
64908;BME280;51412;52.236;5.188;2022-09-09T01:18:17;100676.94;;;18.00;77.17
64908;BME280;51412;52.236;5.188;2022-09-09T01:20:53;100687.38;;;17.98;77.16
64908;BME280;51412;52.236;5.188;2022-09-09T01:23:49;100683.66;;;17.92;77.42
64908;BME280;51412;52.236;5.188;2022-09-09T01:26:30;100682.09;;;17.91;77.63
64908;BME280;51412;52.236;5.188;2022-09-09T01:28:58;100673.34;;;17.87;77.30
64908;BME280;51412;52.236;5.188;2022-09-09T01:31:28;100678.72;;;17.87;77.39
64908;BME280;51412;52.236;5.188;2022-09-09T01:33:56;100671.09;;;17.85;77.41
64908;BME280;51412;52.236;5.188;2022-09-09T01:36:28;100660.00;;;17.83;78.02
64908;BME280;51412;52.236;5.188;2022-09-09T01:38:56;100666.56;;;17.82;77.66
64908;BME280;51412;52.236;5.188;2022-09-09T01:41:23;100662.41;;;17.78;77.55
64908;BME280;51412;52.236;5.188;2022-09-09T01:43:53;100665.19;;;17.74;77.32
64908;BME280;51412;52.236;5.188;2022-09-09T01:46:21;100662.50;;;17.74;77.72
64908;BME280;51412;52.236;5.188;2022-09-09T01:48:49;100660.31;;;17.69;77.71
64908;BME280;51412;52.236;5.188;2022-09-09T01:51:16;100664.56;;;17.66;78.18
64908;BME280;51412;52.236;5.188;2022-09-09T01:53:43;100657.00;;;17.61;78.34
64908;BME280;51412;52.236;5.188;2022-09-09T01:56:18;100660.94;;;17.57;78.14
64908;BME280;51412;52.236;5.188;2022-09-09T01:59:01;100658.66;;;17.55;78.45
64908;BME280;51412;52.236;5.188;2022-09-09T02:01:37;100649.41;;;17.56;78.17
64908;BME280;51412;52.236;5.188;2022-09-09T02:04:17;100659.34;;;17.59;78.30
64908;BME280;51412;52.236;5.188;2022-09-09T02:06:49;100658.25;;;17.57;77.99
64908;BME280;51412;52.236;5.188;2022-09-09T02:09:21;100652.94;;;17.53;77.97
64908;BME280;51412;52.236;5.188;2022-09-09T02:11:54;100657.97;;;17.51;77.97
64908;BME280;51412;52.236;5.188;2022-09-09T02:14:27;100656.78;;;17.52;78.88
64908;BME280;51412;52.236;5.188;2022-09-09T02:17:01;100640.28;;;17.54;78.61
64908;BME280;51412;52.236;5.188;2022-09-09T02:19:32;100648.72;;;17.52;78.23
64908;BME280;51412;52.236;5.188;2022-09-09T02:22:00;100652.59;;;17.51;78.31
64908;BME280;51412;52.236;5.188;2022-09-09T02:24:29;100648.41;;;17.50;78.15
64908;BME280;51412;52.236;5.188;2022-09-09T02:26:57;100640.34;;;17.50;78.28
64908;BME280;51412;52.236;5.188;2022-09-09T02:29:31;100643.88;;;17.47;77.99
64908;BME280;51412;52.236;5.188;2022-09-09T02:32:00;100643.31;;;17.36;78.35
64908;BME280;51412;52.236;5.188;2022-09-09T02:34:29;100652.41;;;17.42;78.21
64908;BME280;51412;52.236;5.188;2022-09-09T02:36:59;100639.03;;;17.38;78.08
64908;BME280;51412;52.236;5.188;2022-09-09T02:39:27;100648.25;;;17.37;78.11
64908;BME280;51412;52.236;5.188;2022-09-09T02:41:53;100650.94;;;17.37;78.77
64908;BME280;51412;52.236;5.188;2022-09-09T02:44:20;100643.66;;;17.38;78.49
64908;BME280;51412;52.236;5.188;2022-09-09T02:47:00;100645.66;;;17.33;78.73
64908;BME280;51412;52.236;5.188;2022-09-09T02:49:40;100645.31;;;17.31;78.57
64908;BME280;51412;52.236;5.188;2022-09-09T02:52:14;100644.13;;;17.32;78.69
64908;BME280;51412;52.236;5.188;2022-09-09T02:54:42;100644.13;;;17.32;78.14
64908;BME280;51412;52.236;5.188;2022-09-09T02:57:11;100640.75;;;17.28;78.25
64908;BME280;51412;52.236;5.188;2022-09-09T02:59:38;100651.09;;;17.30;78.31
64908;BME280;51412;52.236;5.188;2022-09-09T03:02:06;100641.19;;;17.27;78.23
64908;BME280;51412;52.236;5.188;2022-09-09T03:04:33;100632.84;;;17.21;78.32
64908;BME280;51412;52.236;5.188;2022-09-09T03:06:59;100650.13;;;17.20;78.66
64908;BME280;51412;52.236;5.188;2022-09-09T03:09:26;100640.22;;;17.17;78.62
64908;BME280;51412;52.236;5.188;2022-09-09T03:11:52;100638.69;;;17.16;78.41
64908;BME280;51412;52.236;5.188;2022-09-09T03:14:20;100635.75;;;17.10;78.46
64908;BME280;51412;52.236;5.188;2022-09-09T03:16:50;100632.00;;;17.04;78.78
64908;BME280;51412;52.236;5.188;2022-09-09T03:19:18;100630.47;;;17.03;79.19
64908;BME280;51412;52.236;5.188;2022-09-09T03:21:45;100627.81;;;17.03;79.16
64908;BME280;51412;52.236;5.188;2022-09-09T03:24:11;100629.38;;;17.00;79.08
64908;BME280;51412;52.236;5.188;2022-09-09T03:26:38;100631.66;;;17.02;78.91
64908;BME280;51412;52.236;5.188;2022-09-09T03:29:05;100626.69;;;17.00;78.81
64908;BME280;51412;52.236;5.188;2022-09-09T03:31:32;100620.63;;;16.96;78.92
64908;BME280;51412;52.236;5.188;2022-09-09T03:33:59;100629.16;;;16.91;78.86
64908;BME280;51412;52.236;5.188;2022-09-09T03:36:27;100639.94;;;16.88;79.01
64908;BME280;51412;52.236;5.188;2022-09-09T03:38:54;100636.88;;;16.89;79.19
64908;BME280;51412;52.236;5.188;2022-09-09T03:41:21;100634.56;;;16.88;78.95
64908;BME280;51412;52.236;5.188;2022-09-09T03:43:49;100644.53;;;16.87;79.29
64908;BME280;51412;52.236;5.188;2022-09-09T03:46:15;100634.19;;;16.89;79.27
64908;BME280;51412;52.236;5.188;2022-09-09T03:48:42;100634.19;;;16.89;79.22
64908;BME280;51412;52.236;5.188;2022-09-09T03:51:09;100631.50;;;16.89;79.17
64908;BME280;51412;52.236;5.188;2022-09-09T03:53:37;100624.66;;;16.84;79.33
64908;BME280;51412;52.236;5.188;2022-09-09T03:56:04;100627.00;;;16.82;79.28
64908;BME280;51412;52.236;5.188;2022-09-09T03:58:32;100622.03;;;16.81;79.21
64908;BME280;51412;52.236;5.188;2022-09-09T04:01:01;100623.63;;;16.78;79.05
64908;BME280;51412;52.236;5.188;2022-09-09T04:03:28;100622.09;;;16.77;79.34
64908;BME280;51412;52.236;5.188;2022-09-09T04:05:56;100625.94;;;16.76;79.17
64908;BME280;51412;52.236;5.188;2022-09-09T04:08:23;100630.97;;;16.74;79.30
64908;BME280;51412;52.236;5.188;2022-09-09T04:10:52;100628.34;;;16.71;79.38
64908;BME280;51412;52.236;5.188;2022-09-09T04:13:23;100627.94;;;16.72;79.70
64908;BME280;51412;52.236;5.188;2022-09-09T04:15:51;100617.97;;;16.73;79.36
64908;BME280;51412;52.236;5.188;2022-09-09T04:18:18;100620.97;;;16.75;79.27
64908;BME280;51412;52.236;5.188;2022-09-09T04:20:46;100621.75;;;16.75;79.59
64908;BME280;51412;52.236;5.188;2022-09-09T04:23:12;100615.28;;;16.73;79.58
64908;BME280;51412;52.236;5.188;2022-09-09T04:25:43;100622.22;;;16.70;79.33
64908;BME280;51412;52.236;5.188;2022-09-09T04:28:11;100609.56;;;16.71;79.35
64908;BME280;51412;52.236;5.188;2022-09-09T04:30:38;100612.25;;;16.71;79.75
64908;BME280;51412;52.236;5.188;2022-09-09T04:33:05;100607.97;;;16.73;79.78
64908;BME280;51412;52.236;5.188;2022-09-09T04:35:32;100602.56;;;16.77;79.35
64908;BME280;51412;52.236;5.188;2022-09-09T04:37:59;100596.41;;;16.76;79.35
64908;BME280;51412;52.236;5.188;2022-09-09T04:40:28;100609.44;;;16.78;79.24
64908;BME280;51412;52.236;5.188;2022-09-09T04:42:54;100595.66;;;16.76;79.78
64908;BME280;51412;52.236;5.188;2022-09-09T04:45:22;100604.47;;;16.76;79.41
64908;BME280;51412;52.236;5.188;2022-09-09T04:47:49;100602.56;;;16.77;79.19
64908;BME280;51412;52.236;5.188;2022-09-09T04:50:15;100593.72;;;16.76;79.44
64908;BME280;51412;52.236;5.188;2022-09-09T04:52:42;100594.50;;;16.77;79.33
64908;BME280;51412;52.236;5.188;2022-09-09T04:55:08;100593.41;;;16.74;79.29
64908;BME280;51412;52.236;5.188;2022-09-09T04:57:35;100586.50;;;16.73;79.31
64908;BME280;51412;52.236;5.188;2022-09-09T05:00:03;100591.88;;;16.73;79.63
64908;BME280;51412;52.236;5.188;2022-09-09T05:02:31;100597.66;;;16.72;79.59
64908;BME280;51412;52.236;5.188;2022-09-09T05:04:58;100600.69;;;16.74;80.01
64908;BME280;51412;52.236;5.188;2022-09-09T05:07:26;100595.63;;;16.79;79.97
64908;BME280;51412;52.236;5.188;2022-09-09T05:09:54;100593.69;;;16.80;79.83
64908;BME280;51412;52.236;5.188;2022-09-09T05:12:21;100597.09;;;16.80;79.77
64908;BME280;51412;52.236;5.188;2022-09-09T05:14:49;100602.41;;;16.84;79.75
64908;BME280;51412;52.236;5.188;2022-09-09T05:17:15;100592.50;;;16.81;79.61
64908;BME280;51412;52.236;5.188;2022-09-09T05:19:44;100587.56;;;16.79;79.87
64908;BME280;51412;52.236;5.188;2022-09-09T05:22:11;100591.41;;;16.78;79.86
64908;BME280;51412;52.236;5.188;2022-09-09T05:24:38;100581.09;;;16.77;80.12
64908;BME280;51412;52.236;5.188;2022-09-09T05:27:05;100577.25;;;16.78;79.80
64908;BME280;51412;52.236;5.188;2022-09-09T05:29:31;100596.03;;;16.78;79.84
64908;BME280;51412;52.236;5.188;2022-09-09T05:31:58;100592.25;;;16.75;79.83
64908;BME280;51412;52.236;5.188;2022-09-09T05:34:25;100600.28;;;16.75;79.93
64908;BME280;51412;52.236;5.188;2022-09-09T05:36:53;100602.19;;;16.75;80.24
64908;BME280;51412;52.236;5.188;2022-09-09T05:39:20;100596.84;;;16.75;79.91
64908;BME280;51412;52.236;5.188;2022-09-09T05:41:46;100596.41;;;16.76;80.34
64908;BME280;51412;52.236;5.188;2022-09-09T05:44:13;100584.94;;;16.76;80.56
64908;BME280;51412;52.236;5.188;2022-09-09T05:46:39;100578.03;;;16.75;80.47
64908;BME280;51412;52.236;5.188;2022-09-09T05:49:06;100580.41;;;16.73;80.50
64908;BME280;51412;52.236;5.188;2022-09-09T05:51:33;100572.00;;;16.71;80.55
64908;BME280;51412;52.236;5.188;2022-09-09T05:54:01;100587.66;;;16.72;81.62
64908;BME280;51412;52.236;5.188;2022-09-09T05:56:28;100594.34;;;17.08;83.45
64908;BME280;51412;52.236;5.188;2022-09-09T05:58:56;100595.16;;;17.45;82.84
64908;BME280;51412;52.236;5.188;2022-09-09T06:01:24;100593.47;;;17.71;81.39
64908;BME280;51412;52.236;5.188;2022-09-09T06:03:52;100592.91;;;18.13;81.22
64908;BME280;51412;52.236;5.188;2022-09-09T06:06:20;100590.72;;;18.41;78.41
64908;BME280;51412;52.236;5.188;2022-09-09T06:08:48;100591.53;;;18.54;76.90
64908;BME280;51412;52.236;5.188;2022-09-09T06:11:19;100589.53;;;18.58;75.83
64908;BME280;51412;52.236;5.188;2022-09-09T06:13:47;100591.31;;;18.78;76.23
64908;BME280;51412;52.236;5.188;2022-09-09T06:16:18;100581.88;;;18.86;75.38
64908;BME280;51412;52.236;5.188;2022-09-09T06:18:45;100585.09;;;18.81;74.03
64908;BME280;51412;52.236;5.188;2022-09-09T06:21:16;100584.66;;;18.82;74.31
64908;BME280;51412;52.236;5.188;2022-09-09T06:23:43;100586.59;;;18.82;73.86
64908;BME280;51412;52.236;5.188;2022-09-09T06:26:11;100581.56;;;18.84;74.06
64908;BME280;51412;52.236;5.188;2022-09-09T06:28:40;100581.19;;;18.98;74.29
64908;BME280;51412;52.236;5.188;2022-09-09T06:31:09;100581.97;;;19.12;72.86
64908;BME280;51412;52.236;5.188;2022-09-09T06:33:37;100581.13;;;19.15;72.51
64908;BME280;51412;52.236;5.188;2022-09-09T06:36:07;100587.25;;;19.15;72.32
64908;BME280;51412;52.236;5.188;2022-09-09T06:38:36;100585.00;;;19.14;72.21
64908;BME280;51412;52.236;5.188;2022-09-09T06:41:03;100586.31;;;19.22;72.40
64908;BME280;51412;52.236;5.188;2022-09-09T06:43:31;100586.75;;;19.33;71.85
64908;BME280;51412;52.236;5.188;2022-09-09T06:46:03;100585.44;;;19.25;71.09
64908;BME280;51412;52.236;5.188;2022-09-09T06:48:30;100580.56;;;19.07;71.74
64908;BME280;51412;52.236;5.188;2022-09-09T06:51:02;100580.91;;;19.09;72.33
64908;BME280;51412;52.236;5.188;2022-09-09T06:53:29;100581.13;;;19.15;71.98
64908;BME280;51412;52.236;5.188;2022-09-09T06:55:56;100579.28;;;19.12;72.06
64908;BME280;51412;52.236;5.188;2022-09-09T06:58:22;100586.28;;;19.09;71.48
64908;BME280;51412;52.236;5.188;2022-09-09T07:00:49;100587.66;;;19.01;72.09
64908;BME280;51412;52.236;5.188;2022-09-09T07:03:17;100594.66;;;18.98;71.99
64908;BME280;51412;52.236;5.188;2022-09-09T07:05:53;100593.16;;;18.97;72.27
64908;BME280;51412;52.236;5.188;2022-09-09T07:08:20;100594.78;;;19.08;72.50
64908;BME280;51412;52.236;5.188;2022-09-09T07:10:46;100588.03;;;19.16;72.02
64908;BME280;51412;52.236;5.188;2022-09-09T07:13:13;100584.78;;;19.21;72.24
64908;BME280;51412;52.236;5.188;2022-09-09T07:15:40;100590.53;;;19.36;72.03
64908;BME280;51412;52.236;5.188;2022-09-09T07:18:07;100587.00;;;19.52;71.60
64908;BME280;51412;52.236;5.188;2022-09-09T07:20:36;100586.66;;;19.63;71.33
64908;BME280;51412;52.236;5.188;2022-09-09T07:23:03;100586.47;;;19.70;70.90
64908;BME280;51412;52.236;5.188;2022-09-09T07:25:30;100576.97;;;19.78;70.75
64908;BME280;51412;52.236;5.188;2022-09-09T07:27:56;100575.69;;;19.83;70.16
64908;BME280;51412;52.236;5.188;2022-09-09T07:30:23;100581.72;;;19.74;70.23
64908;BME280;51412;52.236;5.188;2022-09-09T07:32:50;100590.78;;;19.67;70.58
64908;BME280;51412;52.236;5.188;2022-09-09T07:35:17;100573.53;;;19.65;70.61
64908;BME280;51412;52.236;5.188;2022-09-09T07:37:45;100587.53;;;19.60;70.64
64908;BME280;51412;52.236;5.188;2022-09-09T07:40:12;100586.88;;;19.43;70.76
64908;BME280;51412;52.236;5.188;2022-09-09T07:42:38;100590.22;;;19.34;71.19
64908;BME280;51412;52.236;5.188;2022-09-09T07:45:05;100580.69;;;19.29;71.48
64908;BME280;51412;52.236;5.188;2022-09-09T07:47:33;100588.56;;;19.24;71.88
64908;BME280;51412;52.236;5.188;2022-09-09T07:50:00;100591.03;;;19.18;71.88
64908;BME280;51412;52.236;5.188;2022-09-09T07:52:27;100592.94;;;19.05;72.16
64908;BME280;51412;52.236;5.188;2022-09-09T07:54:55;100591.97;;;18.98;72.35
64908;BME280;51412;52.236;5.188;2022-09-09T07:57:22;100591.31;;;18.94;72.79
64908;BME280;51412;52.236;5.188;2022-09-09T07:59:49;100586.34;;;18.93;72.57
64908;BME280;51412;52.236;5.188;2022-09-09T08:02:15;100595.50;;;18.95;72.75
64908;BME280;51412;52.236;5.188;2022-09-09T08:04:42;100588.75;;;18.87;72.47
64908;BME280;51412;52.236;5.188;2022-09-09T08:07:09;100593.41;;;18.87;72.63
64908;BME280;51412;52.236;5.188;2022-09-09T08:09:35;100590.38;;;18.84;72.92
64908;BME280;51412;52.236;5.188;2022-09-09T08:12:04;100594.34;;;18.80;72.86
64908;BME280;51412;52.236;5.188;2022-09-09T08:14:31;100598.66;;;18.77;73.15
64908;BME280;51412;52.236;5.188;2022-09-09T08:16:58;100590.34;;;18.72;72.93
64908;BME280;51412;52.236;5.188;2022-09-09T08:19:25;100590.41;;;18.68;73.07
64908;BME280;51412;52.236;5.188;2022-09-09T08:21:54;100594.28;;;18.67;73.30
64908;BME280;51412;52.236;5.188;2022-09-09T08:24:21;100585.88;;;18.65;73.47
64908;BME280;51412;52.236;5.188;2022-09-09T08:26:48;100600.44;;;18.67;73.52
64908;BME280;51412;52.236;5.188;2022-09-09T08:29:17;100599.06;;;18.76;73.44
64908;BME280;51412;52.236;5.188;2022-09-09T08:31:45;100591.47;;;18.87;73.00
64908;BME280;51412;52.236;5.188;2022-09-09T08:34:13;100607.13;;;18.92;72.68
64908;BME280;51412;52.236;5.188;2022-09-09T08:36:42;100603.16;;;18.97;72.02
64908;BME280;51412;52.236;5.188;2022-09-09T08:39:10;100599.94;;;19.02;72.15
64908;BME280;51412;52.236;5.188;2022-09-09T08:41:58;100608.31;;;18.91;71.24
64908;BME280;51412;52.236;5.188;2022-09-09T08:44:40;100610.31;;;18.87;71.57
64908;BME280;51412;52.236;5.188;2022-09-09T08:47:13;100608.13;;;18.82;71.95
64908;BME280;51412;52.236;5.188;2022-09-09T08:49:57;100601.25;;;18.81;71.96
64908;BME280;51412;52.236;5.188;2022-09-09T08:52:29;100619.94;;;18.88;71.87
64908;BME280;51412;52.236;5.188;2022-09-09T08:54:58;100611.84;;;18.88;72.23
64908;BME280;51412;52.236;5.188;2022-09-09T08:57:30;100618.25;;;18.94;72.27
64908;BME280;51412;52.236;5.188;2022-09-09T08:59:59;100612.50;;;18.92;71.94
64908;BME280;51412;52.236;5.188;2022-09-09T09:02:31;100620.25;;;18.90;72.08
64908;BME280;51412;52.236;5.188;2022-09-09T09:05:12;100604.78;;;18.78;71.93
64908;BME280;51412;52.236;5.188;2022-09-09T09:07:56;100614.16;;;18.86;72.23
64908;BME280;51412;52.236;5.188;2022-09-09T09:10:35;100612.97;;;18.74;72.31
64908;BME280;51412;52.236;5.188;2022-09-09T09:13:12;100611.00;;;18.75;72.17
64908;BME280;51412;52.236;5.188;2022-09-09T09:15:42;100611.75;;;18.75;72.39
64908;BME280;51412;52.236;5.188;2022-09-09T09:18:12;100618.56;;;18.80;72.46
64908;BME280;51412;52.236;5.188;2022-09-09T09:20:47;100623.53;;;18.81;72.50
64908;BME280;51412;52.236;5.188;2022-09-09T09:23:21;100622.69;;;18.84;72.46
64908;BME280;51412;52.236;5.188;2022-09-09T09:25:48;100631.09;;;18.87;72.65
64908;BME280;51412;52.236;5.188;2022-09-09T09:28:17;100627.59;;;18.90;72.39
64908;BME280;51412;52.236;5.188;2022-09-09T09:30:50;100629.16;;;18.87;72.42
64908;BME280;51412;52.236;5.188;2022-09-09T09:33:20;100628.91;;;18.81;72.23
64908;BME280;51412;52.236;5.188;2022-09-09T09:35:49;100618.16;;;18.81;72.42
64908;BME280;51412;52.236;5.188;2022-09-09T09:38:20;100628.50;;;18.83;72.67
64908;BME280;51412;52.236;5.188;2022-09-09T09:40:51;100629.66;;;18.82;72.71
64908;BME280;51412;52.236;5.188;2022-09-09T09:43:24;100631.53;;;18.85;72.64
64908;BME280;51412;52.236;5.188;2022-09-09T09:45:54;100630.44;;;18.82;73.54
64908;BME280;51412;52.236;5.188;2022-09-09T09:48:23;100628.56;;;18.79;73.84
64908;BME280;51412;52.236;5.188;2022-09-09T09:50:52;100631.47;;;18.72;74.08
64908;BME280;51412;52.236;5.188;2022-09-09T09:53:22;100626.16;;;18.68;74.35
64908;BME280;51412;52.236;5.188;2022-09-09T09:55:53;100631.53;;;18.68;74.96
64908;BME280;51412;52.236;5.188;2022-09-09T09:58:20;100633.91;;;18.66;74.83
64908;BME280;51412;52.236;5.188;2022-09-09T10:00:47;100624.66;;;18.67;75.28
64908;BME280;51412;52.236;5.188;2022-09-09T10:03:22;100630.38;;;18.69;75.45
64908;BME280;51412;52.236;5.188;2022-09-09T10:05:49;100628.34;;;18.74;75.40
64908;BME280;51412;52.236;5.188;2022-09-09T10:08:17;100624.16;;;18.73;75.63
64908;BME280;51412;52.236;5.188;2022-09-09T10:11:06;100622.47;;;18.62;76.15
64908;BME280;51412;52.236;5.188;2022-09-09T10:13:45;100628.97;;;18.65;76.03
64908;BME280;51412;52.236;5.188;2022-09-09T10:16:24;100628.97;;;18.65;76.40
64908;BME280;51412;52.236;5.188;2022-09-09T10:19:00;100626.34;;;18.61;76.76
64908;BME280;51412;52.236;5.188;2022-09-09T10:21:49;100618.44;;;18.71;77.02
64908;BME280;51412;52.236;5.188;2022-09-09T10:24:43;100622.25;;;18.86;76.62
64908;BME280;51412;52.236;5.188;2022-09-09T10:27:19;100619.41;;;18.93;76.15
64908;BME280;51412;52.236;5.188;2022-09-09T10:30:04;100616.63;;;18.97;75.79
64908;BME280;51412;52.236;5.188;2022-09-09T10:32:40;100626.31;;;18.94;76.42
64908;BME280;51412;52.236;5.188;2022-09-09T10:35:13;100631.44;;;18.89;76.90
64908;BME280;51412;52.236;5.188;2022-09-09T10:37:52;100627.06;;;18.95;77.99
64908;BME280;51412;52.236;5.188;2022-09-09T10:40:29;100630.19;;;18.93;78.41
64908;BME280;51412;52.236;5.188;2022-09-09T10:43:03;100631.72;;;18.94;79.08
64908;BME280;51412;52.236;5.188;2022-09-09T10:45:39;100619.66;;;18.99;79.71
64908;BME280;51412;52.236;5.188;2022-09-09T10:48:23;100627.22;;;19.17;81.30
64908;BME280;51412;52.236;5.188;2022-09-09T10:51:04;100615.84;;;19.39;81.01
64908;BME280;51412;52.236;5.188;2022-09-09T10:53:42;100615.56;;;19.62;79.76
64908;BME280;51412;52.236;5.188;2022-09-09T10:56:16;100614.19;;;19.83;79.38
64908;BME280;51412;52.236;5.188;2022-09-09T10:58:48;100621.84;;;19.98;78.08
64908;BME280;51412;52.236;5.188;2022-09-09T11:01:20;100609.84;;;20.12;77.80
64908;BME280;51412;52.236;5.188;2022-09-09T11:03:53;100608.78;;;20.22;77.12
64908;BME280;51412;52.236;5.188;2022-09-09T11:06:27;100620.44;;;20.19;76.38
64908;BME280;51412;52.236;5.188;2022-09-09T11:08:57;100621.53;;;20.22;76.40
64908;BME280;51412;52.236;5.188;2022-09-09T11:11:30;100597.00;;;20.16;75.18
64908;BME280;51412;52.236;5.188;2022-09-09T11:14:02;100612.78;;;20.05;74.62
64908;BME280;51412;52.236;5.188;2022-09-09T11:16:33;100608.69;;;19.87;74.73
64908;BME280;51412;52.236;5.188;2022-09-09T11:19:11;100603.63;;;19.89;75.04
64908;BME280;51412;52.236;5.188;2022-09-09T11:21:45;100610.00;;;19.82;75.32
64908;BME280;51412;52.236;5.188;2022-09-09T11:24:16;100611.47;;;19.71;74.41
64908;BME280;51412;52.236;5.188;2022-09-09T11:26:50;100614.41;;;19.63;75.38
64908;BME280;51412;52.236;5.188;2022-09-09T11:29:40;100600.59;;;19.61;75.56
64908;BME280;51412;52.236;5.188;2022-09-09T11:32:20;100602.97;;;19.59;75.17
64908;BME280;51412;52.236;5.188;2022-09-09T11:34:57;100601.75;;;19.60;75.22
64908;BME280;51412;52.236;5.188;2022-09-09T11:37:43;100602.06;;;19.49;74.03
64908;BME280;51412;52.236;5.188;2022-09-09T11:40:22;100594.94;;;19.43;74.99
64908;BME280;51412;52.236;5.188;2022-09-09T11:43:02;100596.38;;;19.47;75.47
64908;BME280;51412;52.236;5.188;2022-09-09T11:45:30;100591.72;;;19.48;74.98
64908;BME280;51412;52.236;5.188;2022-09-09T11:47:59;100591.84;;;19.57;75.35
64908;BME280;51412;52.236;5.188;2022-09-09T11:50:29;100595.53;;;19.63;75.13
64908;BME280;51412;52.236;5.188;2022-09-09T11:53:22;100591.88;;;19.70;75.45
64908;BME280;51412;52.236;5.188;2022-09-09T11:56:06;100586.22;;;19.64;75.47
64908;BME280;51412;52.236;5.188;2022-09-09T11:58:42;100591.63;;;19.64;75.99
64908;BME280;51412;52.236;5.188;2022-09-09T12:01:15;100591.41;;;19.59;76.15
64908;BME280;51412;52.236;5.188;2022-09-09T12:03:45;100600.47;;;19.52;76.82
64908;BME280;51412;52.236;5.188;2022-09-09T12:06:16;100582.91;;;19.47;76.54
64908;BME280;51412;52.236;5.188;2022-09-09T12:08:49;100606.91;;;19.29;76.17
64908;BME280;51412;52.236;5.188;2022-09-09T12:11:25;100591.03;;;19.18;76.96
64908;BME280;51412;52.236;5.188;2022-09-09T12:13:53;100608.72;;;19.19;77.37
64908;BME280;51412;52.236;5.188;2022-09-09T12:16:32;100601.59;;;19.25;78.08
64908;BME280;51412;52.236;5.188;2022-09-09T12:19:05;100596.25;;;19.38;78.29
64908;BME280;51412;52.236;5.188;2022-09-09T12:21:38;100602.06;;;19.49;77.57
64908;BME280;51412;52.236;5.188;2022-09-09T12:24:10;100598.31;;;19.60;77.18
64908;BME280;51412;52.236;5.188;2022-09-09T12:26:40;100596.19;;;19.67;76.73
64908;BME280;51412;52.236;5.188;2022-09-09T12:29:20;100604.56;;;19.69;76.36
64908;BME280;51412;52.236;5.188;2022-09-09T12:31:55;100592.28;;;19.68;76.04
64908;BME280;51412;52.236;5.188;2022-09-09T12:34:32;100594.31;;;19.64;76.04
64908;BME280;51412;52.236;5.188;2022-09-09T12:37:05;100599.28;;;19.79;76.09
64908;BME280;51412;52.236;5.188;2022-09-09T12:39:40;100604.94;;;19.97;75.78
64908;BME280;51412;52.236;5.188;2022-09-09T12:42:16;100589.16;;;20.09;75.41
64908;BME280;51412;52.236;5.188;2022-09-09T12:44:54;100589.03;;;20.12;74.31
64908;BME280;51412;52.236;5.188;2022-09-09T12:47:25;100593.25;;;20.13;74.40
64908;BME280;51412;52.236;5.188;2022-09-09T12:49:54;100591.66;;;20.03;73.98
64908;BME280;51412;52.236;5.188;2022-09-09T12:52:26;100601.69;;;20.02;73.83
64908;BME280;51412;52.236;5.188;2022-09-09T12:54:56;100593.94;;;19.92;73.73
64908;BME280;51412;52.236;5.188;2022-09-09T12:57:24;100581.84;;;19.96;73.97
64908;BME280;51412;52.236;5.188;2022-09-09T12:59:52;100593.69;;;19.99;74.23
64908;BME280;51412;52.236;5.188;2022-09-09T13:02:29;100593.50;;;19.93;74.08
64908;BME280;51412;52.236;5.188;2022-09-09T13:05:06;100587.13;;;19.87;73.87
64908;BME280;51412;52.236;5.188;2022-09-09T13:07:33;100586.69;;;19.89;74.26
64908;BME280;51412;52.236;5.188;2022-09-09T13:10:01;100582.06;;;19.89;74.28